Terminal Aerodrome Forecast
Issued by NWS

Home | Current Version | Previous Version | Text Only | Print | Product List | Glossary On
Versions: 1 2 3 4 5 6 7 8 9 10 11 12 13 14 15 16 17 18 19 20 21 22
000
FTUS41 KBGM 302336
TAFRME
TAF
KRME 302336Z 3100/3124 22007KT P6SM -SHRA OVC050
      TEMPO 3101/3103 2SM TSRA OVC020CB
     FM310600 33010KT 4SM -RA BR OVC012
      TEMPO 3108/3112 OVC009
     FM311800 05007KT P6SM -SHRA OVC015=

USA.gov is the U.S. government's official web portal to all federal, state and local government web resources and services.